Airfield :
LOGIN :

Register | Disclaimer

   EN    FR    IT 

 










Legend :    VFR   Marginal VFR   IFR   Intensive IFR   Very Intensive IFR
Visi :
Ceiling :
>= 8 km
>= 3000ft
5 to 8 km
1000 to 3000 ft
1500m to 5 km
500 to 1000 ft
800 to 1500m
200 to 500 ft
< 800m
< 200 ft
Symbols :   Thunderstorms  Fog  Heavy snow  Heavy precipitations  Wind > 20 kt
SIGMETs :     Misc.  Thunderstorms  Icing  Turbulence  Mountain Waves  Volcanic Ashes







- Airport Elevation : 129 ft
- IATA code : ZCN


ETHC - Celle

CURRENT METAR :
  • 172100Z 26010KT 9999 -SHSN FEW010 BKN050 01/00 Q1004 BLU

EXPIRED METARs :
  • 172020Z 26011KT 9999 -SN FEW008 BKN014 01/00 Q1003 GRN
  • 172004Z 26012KT 9999 -SN FEW012 BKN014 02/M00 Q1003 GRN
  • 171948Z 26013KT 9999 FEW012 BKN017 02/M00 Q1003 WHT
  • 171920Z 26012KT 9999 FEW012 BKN014 02/M00 Q1002 GRN
  • 171820Z 25011KT 9999 BKN016 SCT150 02/01 Q1001 WHT

TAF AMD TAF ETHC
Valid from the 17 at 16:00 until the 18 at 00:00 UTC


171631Z 1716/1724 25010KT 9999 NSW SCT010 BKN020
TEMPO 1716/1724 28012KT 4000 SHRA BKN007 BKN015
PROB30 1718/1724 30015G25KT 2000 SHSN BKN007CB
No reported NOTAMs for that airfield.



MET'MAP, your aeronautical weather chart ! - Copyright ORBIFLY December 2007 - Disclaimer

ORBIFLY MET'MAP TEAM :

Programming & Development : Alexandra Zaïnal
Concept & Development : Baudouin d'Aumeries
Co-Development & Prog : Marc-Olivier Méhu
Technical & hardware support : Manuel Goepfert

Contact : metmap@orbifly.com




SOURCES & CREDITS :

   NOAA